createdAt,value
2019-04-06T00:00:52.460Z,34.70
2019-04-06T00:03:21.338Z,34.20
2019-04-06T00:05:50.181Z,33.87
2019-04-06T00:08:19.779Z,33.60
2019-04-06T00:10:48.600Z,33.80
2019-04-06T00:13:17.444Z,33.83
2019-04-06T00:15:46.279Z,34.97
2019-04-06T00:18:15.152Z,34.30
2019-04-06T00:20:44.025Z,32.83
2019-04-06T00:23:12.827Z,31.43
2019-04-06T00:25:44.691Z,32.43
2019-04-06T00:28:10.524Z,31.80
2019-04-06T00:30:41.085Z,32.17
2019-04-06T00:33:09.958Z,31.23
2019-04-06T00:35:38.802Z,32.03
2019-04-06T00:38:07.641Z,35.43
2019-04-06T00:40:36.476Z,34.30
2019-04-06T00:43:05.354Z,49.77
2019-04-06T00:45:34.157Z,99.00
2019-04-06T00:48:03.027Z,79.33
2019-04-06T00:50:31.845Z,81.13
2019-04-06T00:53:00.714Z,273.60
2019-04-06T00:55:29.598Z,366.80
2019-04-06T00:57:58.409Z,130.60
2019-04-06T01:00:27.261Z,142.27
2019-04-06T01:02:56.124Z,198.93
2019-04-06T01:05:24.971Z,227.02
2019-04-06T01:07:53.807Z,209.07
2019-04-06T01:10:22.675Z,215.00
2019-04-06T01:12:51.512Z,152.73
2019-04-06T01:15:20.367Z,190.30
2019-04-06T01:17:49.204Z,182.87
2019-04-06T01:20:18.053Z,109.17
2019-04-06T01:22:46.892Z,61.60
2019-04-06T01:25:16.619Z,128.17
2019-04-06T01:27:45.335Z,123.77
2019-04-06T01:30:14.186Z,105.80
2019-04-06T01:32:43.033Z,166.60
2019-04-06T01:35:11.885Z,283.20
2019-04-06T01:37:40.827Z,76.43
2019-04-06T01:40:10.351Z,134.97
2019-04-06T01:42:39.188Z,109.77
2019-04-06T01:45:08.038Z,153.70
2019-04-06T01:47:36.920Z,100.50
2019-04-06T01:50:05.735Z,129.30
2019-04-06T01:52:34.590Z,170.37
2019-04-06T01:55:03.431Z,246.53
2019-04-06T01:57:32.274Z,85.60
2019-04-06T02:00:01.127Z,277.10
2019-04-06T02:02:31.831Z,94.53
2019-04-06T02:05:00.663Z,195.23
2019-04-06T02:07:29.518Z,150.43
2019-04-06T02:09:58.352Z,178.17
2019-04-06T02:12:27.194Z,143.50
2019-04-06T02:14:56.053Z,186.17
2019-04-06T02:17:24.893Z,80.70
2019-04-06T02:19:53.755Z,159.80
2019-04-06T02:22:22.608Z,164.73
2019-04-06T02:24:51.461Z,234.97
2019-04-06T02:27:20.299Z,207.63
2019-04-06T02:29:49.158Z,207.03
2019-04-06T02:32:22.513Z,248.63
2019-04-06T02:34:51.397Z,182.65
2019-04-06T02:37:22.958Z,141.70
2019-04-06T02:39:57.367Z,88.63
2019-04-06T02:42:26.964Z,284.43
2019-04-06T02:44:55.915Z,257.60
2019-04-06T02:47:25.409Z,265.30
2019-04-06T02:49:54.309Z,166.77
2019-04-06T02:52:23.104Z,113.37
2019-04-06T02:54:52.000Z,174.27
2019-04-06T02:57:20.813Z,262.20
2019-04-06T02:59:49.642Z,196.60
2019-04-06T03:02:18.493Z,246.57
2019-04-06T03:04:47.351Z,244.10
2019-04-06T03:07:16.200Z,239.47
2019-04-06T03:09:45.050Z,186.07
2019-04-06T03:12:13.938Z,182.37
2019-04-06T03:14:44.586Z,140.47
2019-04-06T03:17:11.646Z,117.13
2019-04-06T03:19:40.738Z,187.53
2019-04-06T03:22:09.458Z,89.93
2019-04-06T03:24:38.310Z,165.73
2019-04-06T03:27:07.206Z,104.33
2019-04-06T03:29:35.992Z,150.40
2019-04-06T03:32:04.839Z,226.37
2019-04-06T03:34:33.728Z,127.57
2019-04-06T03:37:02.555Z,166.83
2019-04-06T03:39:31.406Z,150.83
2019-04-06T03:42:00.259Z,205.53
2019-04-06T03:44:29.094Z,137.47
2019-04-06T03:46:57.986Z,72.67
2019-04-06T03:49:26.772Z,206.63
2019-04-06T03:51:55.629Z,155.70
2019-04-06T03:54:24.488Z,223.37
2019-04-06T03:56:53.354Z,138.77
2019-04-06T03:59:22.197Z,201.60
2019-04-06T04:01:51.057Z,136.00
2019-04-06T04:04:19.913Z,139.85
2019-04-06T04:06:48.749Z,103.77
2019-04-06T04:09:17.594Z,101.00
2019-04-06T04:11:46.439Z,112.63
2019-04-06T04:14:15.286Z,85.23
2019-04-06T04:16:44.120Z,111.17
2019-04-06T04:19:12.963Z,92.17
2019-04-06T04:21:41.816Z,34.70
2019-04-06T04:24:10.669Z,108.13
2019-04-06T04:26:39.669Z,62.67
2019-04-06T04:29:08.358Z,39.97
2019-04-06T04:31:37.202Z,131.53
2019-04-06T04:34:19.311Z,66.97
2019-04-06T04:36:48.159Z,106.97
2019-04-06T04:39:16.990Z,80.07
2019-04-06T04:41:45.918Z,208.70
2019-04-06T04:44:15.598Z,228.20
2019-04-06T04:46:44.495Z,97.93
2019-04-06T04:49:13.919Z,50.53
2019-04-06T04:51:42.717Z,234.70
2019-04-06T04:54:11.559Z,147.93
2019-04-06T04:56:40.397Z,151.20
2019-04-06T04:59:09.244Z,224.90
2019-04-06T05:01:38.371Z,202.13
2019-04-06T05:04:06.942Z,253.50
2019-04-06T05:06:35.776Z,76.20
2019-04-06T05:09:04.634Z,146.43
2019-04-06T05:11:33.474Z,113.05
2019-04-06T05:14:20.248Z,66.47
2019-04-06T05:16:48.994Z,285.97
2019-04-06T05:19:17.843Z,188.47
2019-04-06T05:21:47.414Z,66.25
2019-04-06T05:24:16.264Z,150.73
2019-04-06T05:26:45.109Z,166.87
2019-04-06T05:29:13.938Z,65.27
2019-04-06T05:31:42.770Z,50.30
2019-04-06T05:34:11.610Z,148.03
2019-04-06T05:36:40.458Z,60.73
2019-04-06T05:39:09.287Z,144.37
2019-04-06T05:41:38.130Z,86.43
2019-04-06T05:44:07.005Z,94.80
2019-04-06T05:46:35.815Z,73.67
2019-04-06T05:49:04.667Z,88.57
2019-04-06T05:51:33.504Z,42.73
2019-04-06T05:54:02.352Z,88.57
2019-04-06T05:56:31.196Z,106.60
2019-04-06T05:59:00.898Z,82.57
2019-04-06T06:01:29.630Z,215.37
2019-04-06T06:03:58.592Z,239.47
2019-04-06T06:06:27.448Z,134.00
2019-04-06T06:08:56.984Z,129.73
2019-04-06T06:11:25.828Z,43.80
2019-04-06T06:13:54.663Z,101.53
2019-04-06T06:16:23.530Z,53.70
2019-04-06T06:18:52.338Z,119.53
2019-04-06T06:21:21.186Z,63.53
2019-04-06T06:23:50.036Z,65.07
2019-04-06T06:26:18.859Z,74.27
2019-04-06T06:28:47.691Z,60.10
2019-04-06T06:31:17.304Z,72.27
2019-04-06T06:33:46.102Z,105.10
2019-04-06T06:36:15.820Z,133.67
2019-04-06T06:38:45.374Z,67.37
2019-04-06T06:41:14.336Z,46.00
2019-04-06T06:43:45.123Z,64.23
2019-04-06T06:46:11.898Z,61.70
2019-04-06T06:48:42.982Z,116.53
2019-04-06T06:51:09.817Z,37.33
2019-04-06T06:53:38.435Z,60.80
2019-04-06T06:56:08.022Z,48.07
2019-04-06T06:58:37.008Z,223.43
2019-04-06T07:01:05.712Z,83.30
2019-04-06T07:03:34.548Z,178.80
2019-04-06T07:06:03.397Z,49.33
2019-04-06T07:08:32.242Z,93.23
2019-04-06T07:11:01.076Z,136.25
2019-04-06T07:13:29.931Z,142.87
2019-04-06T07:15:58.782Z,66.27
2019-04-06T07:18:27.622Z,60.67
2019-04-06T07:20:56.459Z,100.43
2019-04-06T07:23:25.290Z,122.87
2019-04-06T07:25:58.696Z,54.40
2019-04-06T07:28:22.986Z,111.97
2019-04-06T07:30:51.873Z,95.93
2019-04-06T07:33:20.868Z,61.85
2019-04-06T07:35:49.718Z,156.53
2019-04-06T07:38:18.574Z,71.23
2019-04-06T07:40:48.220Z,69.77
2019-04-06T07:43:17.021Z,46.20
2019-04-06T07:45:45.848Z,39.40
2019-04-06T07:48:15.494Z,44.00
2019-04-06T07:50:45.035Z,39.80
2019-04-06T07:53:13.869Z,39.60
2019-04-06T07:55:42.856Z,39.67
2019-04-06T07:58:11.690Z,38.53
2019-04-06T08:00:40.514Z,38.30
2019-04-06T08:03:09.359Z,38.13
2019-04-06T08:05:38.094Z,42.60
2019-04-06T08:08:10.286Z,41.67
2019-04-06T08:10:39.131Z,40.23
2019-04-06T08:13:07.951Z,40.10
2019-04-06T08:15:36.801Z,40.33
2019-04-06T08:18:05.775Z,39.37
2019-04-06T08:20:34.502Z,38.60
2019-04-06T08:23:04.080Z,40.10
2019-04-06T08:25:32.929Z,46.75
2019-04-06T08:28:01.766Z,43.07
2019-04-06T08:30:30.723Z,45.17
2019-04-06T08:32:59.451Z,45.63
2019-04-06T08:35:28.294Z,43.87
2019-04-06T08:37:57.159Z,45.03
2019-04-06T08:40:26.732Z,41.23
2019-04-06T08:42:55.574Z,43.40
2019-04-06T08:45:24.425Z,43.93
2019-04-06T08:47:53.990Z,44.73
2019-04-06T08:50:22.821Z,43.57
2019-04-06T08:52:52.469Z,41.10
2019-04-06T08:55:21.306Z,38.47
2019-04-06T08:57:50.924Z,41.33
2019-04-06T09:00:20.520Z,39.93
2019-04-06T09:02:50.120Z,41.85
2019-04-06T09:05:18.994Z,40.38
2019-04-06T09:07:47.818Z,39.83
2019-04-06T09:10:16.660Z,42.83
2019-04-06T09:12:45.542Z,41.53
2019-04-06T09:15:14.370Z,39.13
2019-04-06T09:17:43.219Z,36.47
2019-04-06T09:20:12.042Z,34.60
2019-04-06T09:22:40.885Z,36.70
2019-04-06T09:25:09.719Z,33.40
2019-04-06T09:27:39.159Z,33.33
2019-04-06T09:30:08.834Z,38.83
2019-04-06T09:32:37.876Z,34.73
2019-04-06T09:35:06.530Z,36.03
2019-04-06T09:37:36.112Z,33.73
2019-04-06T09:40:05.645Z,33.60
2019-04-06T09:42:35.280Z,33.50
2019-04-06T09:45:09.494Z,34.63
2019-04-06T09:47:39.227Z,31.63
2019-04-06T09:50:11.026Z,32.40
2019-04-06T09:52:45.457Z,32.53
2019-04-06T09:55:20.618Z,33.57
2019-04-06T09:57:53.872Z,32.93
2019-04-06T10:00:26.538Z,31.30
2019-04-06T10:02:55.641Z,33.90
2019-04-06T10:05:25.045Z,32.30
2019-04-06T10:07:59.804Z,33.20
2019-04-06T10:10:28.621Z,32.00
2019-04-06T10:12:58.476Z,33.00
2019-04-06T10:15:27.389Z,29.70
2019-04-06T10:18:00.148Z,30.30
2019-04-06T10:20:35.538Z,31.03
2019-04-06T10:23:09.989Z,30.77
2019-04-06T10:25:40.654Z,26.93
2019-04-06T10:28:15.190Z,27.57
2019-04-06T10:30:46.868Z,30.20
2019-04-06T10:33:22.306Z,26.23
2019-04-06T10:35:51.856Z,27.87
2019-04-06T10:38:20.728Z,28.30
2019-04-06T10:40:53.414Z,29.63
2019-04-06T10:43:22.314Z,30.60
2019-04-06T10:45:51.190Z,34.03
2019-04-06T10:48:20.099Z,31.00
2019-04-06T10:50:55.254Z,29.40
2019-04-06T10:53:26.074Z,34.63
2019-04-06T10:55:54.795Z,32.40
2019-04-06T10:58:29.923Z,33.43
2019-04-06T11:00:59.620Z,33.67
2019-04-06T11:03:34.036Z,32.87
2019-04-06T11:06:02.872Z,33.17
2019-04-06T11:08:31.689Z,33.60
2019-04-06T11:11:03.126Z,31.97
2019-04-06T11:13:34.100Z,31.10
2019-04-06T11:16:05.690Z,30.27
2019-04-06T11:18:36.331Z,33.73
2019-04-06T11:21:07.506Z,32.53
2019-04-06T11:23:38.145Z,34.17
2019-04-06T11:26:07.773Z,29.60
2019-04-06T11:28:37.368Z,31.97
2019-04-06T11:31:10.251Z,34.25
2019-04-06T11:33:44.716Z,33.50
2019-04-06T11:36:13.573Z,30.58
2019-04-06T11:38:47.147Z,28.33
2019-04-06T11:41:17.886Z,31.20
2019-04-06T11:43:48.634Z,29.70
2019-04-06T11:46:17.639Z,26.33
2019-04-06T11:48:46.328Z,25.07
2019-04-06T11:51:16.995Z,27.37
2019-04-06T11:53:47.819Z,29.03
2019-04-06T11:56:17.485Z,27.47
2019-04-06T11:58:49.095Z,27.30
2019-04-06T12:01:18.824Z,26.73
2019-04-06T12:03:53.276Z,22.87
2019-04-06T12:06:22.129Z,23.33
2019-04-06T12:08:56.883Z,24.70
2019-04-06T12:11:25.766Z,22.57
2019-04-06T12:13:55.477Z,18.90
2019-04-06T12:16:30.020Z,17.53
2019-04-06T12:18:58.808Z,18.50
2019-04-06T12:21:35.220Z,14.73
2019-04-06T12:24:09.164Z,15.53
2019-04-06T12:26:40.914Z,13.93
2019-04-06T12:29:16.539Z,14.30
2019-04-06T12:31:44.878Z,13.93
2019-04-06T12:34:14.473Z,13.00
2019-04-06T12:36:48.065Z,12.87
2019-04-06T12:39:22.541Z,11.82
2019-04-06T12:41:51.634Z,12.07
2019-04-06T12:44:21.011Z,10.37
2019-04-06T12:46:55.437Z,10.03
2019-04-06T12:49:25.031Z,10.87
2019-04-06T12:51:55.778Z,10.87
2019-04-06T12:54:25.101Z,11.53
2019-04-06T12:56:56.319Z,11.20
2019-04-06T12:59:30.363Z,10.70
2019-04-06T13:01:59.193Z,13.10
2019-04-06T13:04:29.603Z,14.50
2019-04-06T13:06:59.331Z,15.87
2019-04-06T13:09:33.899Z,17.08
2019-04-06T13:12:04.350Z,17.70
2019-04-06T13:14:35.036Z,15.80
2019-04-06T13:17:04.631Z,17.00
2019-04-06T13:19:37.341Z,17.60
2019-04-06T13:22:10.226Z,18.43
2019-04-06T13:24:40.665Z,18.50
2019-04-06T13:27:12.245Z,17.73
2019-04-06T13:29:43.172Z,18.00
2019-04-06T13:32:13.475Z,20.10
2019-04-06T13:34:42.663Z,20.17
2019-04-06T13:37:14.279Z,19.43
2019-04-06T13:39:43.105Z,19.43
2019-04-06T13:42:11.727Z,20.20
2019-04-06T13:44:41.340Z,19.40
2019-04-06T13:47:13.481Z,18.90
2019-04-06T13:49:47.643Z,20.80
2019-04-06T13:52:16.343Z,18.57
2019-04-06T13:54:50.750Z,18.30
2019-04-06T13:57:20.318Z,20.88
2019-04-06T13:59:49.980Z,19.23
2019-04-06T14:02:18.727Z,19.33
2019-04-06T14:04:53.565Z,19.27
2019-04-06T14:07:23.149Z,19.98
2019-04-06T14:09:52.093Z,18.83
2019-04-06T14:12:21.745Z,18.37
2019-04-06T14:14:52.374Z,16.77
2019-04-06T14:17:21.209Z,17.20
2019-04-06T14:19:55.783Z,16.97
2019-04-06T14:22:24.339Z,18.30
2019-04-06T14:24:54.082Z,17.87
2019-04-06T14:27:28.402Z,17.90
2019-04-06T14:30:01.223Z,18.27
2019-04-06T14:32:32.535Z,18.33
2019-04-06T14:35:07.394Z,19.62
2019-04-06T14:37:42.373Z,18.80
2019-04-06T14:40:12.993Z,19.12
2019-04-06T14:42:47.477Z,15.77
2019-04-06T14:45:17.172Z,18.93
2019-04-06T14:47:46.014Z,18.73
2019-04-06T14:50:15.216Z,15.67
2019-04-06T14:52:44.435Z,17.50
2019-04-06T14:55:13.305Z,18.00
2019-04-06T14:57:47.001Z,17.20
2019-04-06T15:00:21.864Z,15.73
2019-04-06T15:02:52.914Z,16.73
2019-04-06T15:05:23.230Z,15.87
2019-04-06T15:07:53.374Z,18.25
2019-04-06T15:10:27.049Z,18.50
2019-04-06T15:13:02.144Z,17.17
2019-04-06T15:15:31.874Z,19.27
2019-04-06T15:18:01.492Z,19.27
2019-04-06T15:20:30.407Z,19.33
2019-04-06T15:23:00.071Z,18.77
2019-04-06T15:25:32.614Z,20.73
2019-04-06T15:28:02.396Z,20.48
2019-04-06T15:30:35.182Z,18.03
2019-04-06T15:33:09.966Z,17.97
2019-04-06T15:35:41.454Z,19.77
2019-04-06T15:38:12.851Z,19.65
2019-04-06T15:40:41.998Z,19.30
2019-04-06T15:43:18.602Z,18.93
2019-04-06T15:45:45.006Z,16.63
2019-04-06T15:48:20.571Z,16.10
2019-04-06T15:50:54.630Z,17.07
2019-04-06T15:53:23.283Z,17.40
2019-04-06T15:55:53.238Z,17.53
2019-04-06T15:58:27.269Z,16.37
2019-04-06T16:01:02.007Z,18.60
2019-04-06T16:03:34.518Z,16.77
2019-04-06T16:06:04.203Z,18.43
2019-04-06T16:08:33.317Z,16.03
2019-04-06T16:11:07.985Z,17.70
2019-04-06T16:13:36.509Z,16.67
2019-04-06T16:16:10.414Z,16.47
2019-04-06T16:18:40.907Z,17.13
2019-04-06T16:21:14.724Z,17.27
2019-04-06T16:23:44.643Z,18.43
2019-04-06T16:26:13.229Z,17.70
2019-04-06T16:28:42.848Z,18.27
2019-04-06T16:31:17.181Z,16.03
2019-04-06T16:33:48.821Z,17.40
2019-04-06T16:36:19.800Z,17.30
2019-04-06T16:38:48.433Z,19.40
2019-04-06T16:41:19.867Z,17.80
2019-04-06T16:43:51.460Z,18.17
2019-04-06T16:46:20.315Z,17.90
2019-04-06T16:48:50.792Z,18.90
2019-04-06T16:51:26.233Z,20.85
2019-04-06T16:53:55.667Z,19.23
2019-04-06T16:56:26.077Z,19.70
2019-04-06T16:59:01.124Z,17.60
2019-04-06T17:01:29.741Z,17.60
2019-04-06T17:04:01.529Z,18.83
2019-04-06T17:06:32.213Z,19.07
2019-04-06T17:09:01.859Z,18.90
2019-04-06T17:11:32.444Z,18.47
2019-04-06T17:14:03.233Z,18.33
2019-04-06T17:16:36.204Z,21.67
2019-04-06T17:19:07.647Z,18.70
2019-04-06T17:21:38.991Z,20.67
2019-04-06T17:24:10.553Z,21.25
2019-04-06T17:26:39.399Z,21.12
2019-04-06T17:29:10.227Z,21.95
2019-04-06T17:31:40.268Z,20.47
2019-04-06T17:34:09.820Z,19.30
2019-04-06T17:36:43.031Z,19.13
2019-04-06T17:39:17.484Z,20.65
2019-04-06T17:41:52.075Z,19.53
2019-04-06T17:44:26.660Z,20.23
2019-04-06T17:46:59.114Z,18.83
2019-04-06T17:49:29.276Z,19.77
2019-04-06T17:52:00.882Z,18.93
2019-04-06T17:54:30.176Z,18.63
2019-04-06T17:56:59.754Z,20.00
2019-04-06T17:59:34.944Z,21.05
2019-04-06T18:02:03.336Z,19.93
2019-04-06T18:04:35.594Z,19.53
2019-04-06T18:07:07.513Z,20.17
2019-04-06T18:09:37.411Z,20.07
2019-04-06T18:12:06.275Z,20.83
2019-04-06T18:14:35.157Z,19.43
2019-04-06T18:17:04.748Z,20.60
2019-04-06T18:19:34.910Z,19.43
2019-04-06T18:22:03.192Z,20.30
2019-04-06T18:24:32.041Z,17.43
2019-04-06T18:27:00.890Z,18.47
2019-04-06T18:29:29.893Z,16.77
2019-04-06T18:31:59.474Z,21.77
2019-04-06T18:34:28.560Z,20.52
2019-04-06T18:36:57.200Z,18.10
2019-04-06T18:39:26.484Z,20.83
2019-04-06T18:41:55.165Z,22.83
2019-04-06T18:44:24.085Z,24.83
2019-04-06T18:46:53.376Z,21.43
2019-04-06T18:49:22.960Z,20.00
2019-04-06T18:51:51.806Z,23.27
2019-04-06T18:54:20.978Z,21.73
2019-04-06T18:56:49.601Z,23.23
2019-04-06T18:59:18.400Z,22.57
2019-04-06T19:01:47.219Z,22.30
2019-04-06T19:04:16.885Z,23.95
2019-04-06T19:06:45.651Z,22.87
2019-04-06T19:09:22.154Z,21.77
2019-04-06T19:11:53.619Z,21.73
2019-04-06T19:14:12.998Z,23.03
2019-04-06T19:16:42.598Z,25.00
2019-04-06T19:19:11.472Z,30.33
2019-04-06T19:21:40.309Z,27.87
2019-04-06T19:24:09.163Z,22.83
2019-04-06T19:26:38.693Z,24.30
2019-04-06T19:29:07.080Z,21.53
2019-04-06T19:31:35.737Z,23.77
2019-04-06T19:34:04.850Z,27.47
2019-04-06T19:36:33.453Z,26.70
2019-04-06T19:39:02.374Z,24.23
2019-04-06T19:41:31.468Z,23.63
2019-04-06T19:44:00.103Z,24.00
2019-04-06T19:46:29.408Z,21.50
2019-04-06T19:48:57.807Z,26.30
2019-04-06T19:51:27.162Z,24.27
2019-04-06T19:53:55.948Z,24.03
2019-04-06T19:56:24.547Z,24.23
2019-04-06T19:58:53.179Z,26.33
2019-04-06T20:01:22.023Z,26.77
2019-04-06T20:03:51.621Z,25.10
2019-04-06T20:06:20.475Z,28.52
2019-04-06T20:08:49.568Z,26.83
2019-04-06T20:11:18.760Z,26.47
2019-04-06T20:13:47.091Z,24.90
2019-04-06T20:16:16.341Z,29.35
2019-04-06T20:18:44.778Z,25.73
2019-04-06T20:21:14.361Z,25.00
2019-04-06T20:23:43.210Z,24.23
2019-04-06T20:26:12.058Z,27.40
2019-04-06T20:28:41.119Z,27.07
2019-04-06T20:31:09.747Z,26.27
2019-04-06T20:33:48.217Z,25.83
2019-04-06T20:36:08.196Z,25.20
2019-04-06T20:38:37.029Z,25.50
2019-04-06T20:41:06.652Z,26.30
2019-04-06T20:43:35.663Z,26.33
2019-04-06T20:46:05.414Z,26.63
2019-04-06T20:48:34.830Z,27.73
2019-04-06T20:51:03.694Z,26.17
2019-04-06T20:53:33.157Z,29.02
2019-04-06T20:56:01.921Z,26.30
2019-04-06T20:58:30.249Z,26.43
2019-04-06T21:00:59.087Z,29.73
2019-04-06T21:03:28.672Z,25.63
2019-04-06T21:05:58.510Z,27.37
2019-04-06T21:08:27.669Z,28.03
2019-04-06T21:10:56.800Z,27.20
2019-04-06T21:13:25.374Z,26.47
2019-04-06T21:15:55.457Z,25.67
2019-04-06T21:18:24.554Z,27.17
2019-04-06T21:20:53.401Z,25.17
2019-04-06T21:23:22.788Z,24.70
2019-04-06T21:25:51.847Z,25.03
2019-04-06T21:28:19.955Z,27.87
2019-04-06T21:30:49.069Z,25.07
2019-04-06T21:33:17.665Z,24.77
2019-04-06T21:35:47.332Z,24.03
2019-04-06T21:38:15.989Z,21.80
2019-04-06T21:40:44.800Z,24.27
2019-04-06T21:43:14.499Z,23.53
2019-04-06T21:45:43.255Z,22.83
2019-04-06T21:48:12.106Z,25.55
2019-04-06T21:50:40.933Z,23.80
2019-04-06T21:53:09.771Z,24.20
2019-04-06T21:55:39.348Z,21.77
2019-04-06T21:58:08.800Z,25.40
2019-04-06T22:00:40.021Z,24.40
2019-04-06T22:03:08.340Z,25.00
2019-04-06T22:05:37.241Z,22.93
2019-04-06T22:08:06.119Z,22.50
2019-04-06T22:10:34.899Z,23.17
2019-04-06T22:13:03.899Z,23.03
2019-04-06T22:15:33.160Z,22.60
2019-04-06T22:18:02.873Z,23.67
2019-04-06T22:20:31.570Z,24.23
2019-04-06T22:23:00.447Z,23.03
2019-04-06T22:25:30.038Z,24.20
2019-04-06T22:27:59.642Z,28.23
2019-04-06T22:30:28.895Z,28.42
2019-04-06T22:32:57.387Z,26.43
2019-04-06T22:35:26.246Z,27.83
2019-04-06T22:37:56.114Z,24.77
2019-04-06T22:40:23.923Z,24.73
2019-04-06T22:42:52.787Z,24.67
2019-04-06T22:45:21.683Z,28.00
2019-04-06T22:47:50.817Z,26.10
2019-04-06T22:50:19.913Z,26.70
2019-04-06T22:52:48.188Z,27.33
2019-04-06T22:55:17.668Z,29.90
2019-04-06T22:57:45.868Z,28.70
2019-04-06T23:00:16.818Z,26.83
2019-04-06T23:02:49.038Z,26.63
2019-04-06T23:05:17.840Z,26.03
2019-04-06T23:07:46.777Z,31.00
2019-04-06T23:10:15.815Z,26.63
2019-04-06T23:12:44.841Z,30.05
2019-04-06T23:15:13.236Z,27.13
2019-04-06T23:17:42.122Z,30.90
2019-04-06T23:20:11.664Z,26.23
2019-04-06T23:22:41.266Z,31.15
2019-04-06T23:25:10.585Z,29.43
2019-04-06T23:27:38.952Z,26.47
2019-04-06T23:30:08.822Z,27.13
2019-04-06T23:32:38.248Z,30.95
2019-04-06T23:35:08.178Z,26.77
2019-04-06T23:37:36.692Z,30.17
2019-04-06T23:40:05.618Z,27.30
2019-04-06T23:42:34.414Z,28.00
2019-04-06T23:45:03.572Z,26.23
2019-04-06T23:47:32.400Z,27.60
2019-04-06T23:50:00.942Z,29.23
2019-04-06T23:52:29.782Z,27.87
2019-04-06T23:54:58.868Z,27.40
2019-04-06T23:57:27.486Z,28.47
2019-04-06T23:59:57.078Z,27.83
